Time;durP1;ratioP1;P1;durP2;ratioP2;P2;SDS_P1;SDS_P2;PMS_P1;PMS_P2;Temp;Humidity;BMP_temperature;BMP_pressure;BME280_temperature;BME280_humidity;BME280_pressure;Samples;Min_cycle;Max_cycle;Signal;HPM_P1;HPM_P2
2022/03/16 17:17:53;;;;;;;18.90;15.90;;;;;;;11.15;67.41;99422.22;2619488;46;20521;-68
2022/03/16 17:20:26;;;;;;;26.60;21.58;;;;;;;11.11;67.47;99426.22;2618424;54;20034;-67
2022/03/16 17:22:57;;;;;;;19.88;15.70;;;;;;;11.05;67.92;99429.59;2617956;47;20035;-67
2022/03/16 17:25:27;;;;;;;20.23;14.88;;;;;;;10.99;67.95;99430.31;2617446;47;20027;-67
2022/03/16 17:27:56;;;;;;;20.02;16.90;;;;;;;10.98;68.50;99427.84;2618310;54;20030;-69
2022/03/16 17:30:28;;;;;;;19.20;15.13;;;;;;;10.89;68.43;99425.25;2618151;54;20077;-69
2022/03/16 17:33:05;;;;;;;20.38;15.63;;;;;;;10.85;68.65;99420.50;2618172;54;20034;-68
2022/03/16 17:35:36;;;;;;;22.73;18.70;;;;;;;10.80;68.86;99421.06;2617221;47;20031;-70
2022/03/16 17:38:06;;;;;;;22.35;18.48;;;;;;;10.72;69.23;99421.13;2618518;54;20035;-69
2022/03/16 17:40:37;;;;;;;22.90;18.70;;;;;;;10.66;69.66;99416.56;2618166;54;20038;-68
2022/03/16 17:45:49;;;;;;;23.88;19.92;;;;;;;10.56;69.66;99415.97;2617719;54;20122;-68
2022/03/16 17:48:23;;;;;;;21.55;18.48;;;;;;;10.50;70.13;99414.06;2618079;54;20034;-67
2022/03/16 17:50:58;;;;;;;22.20;19.05;;;;;;;10.48;70.19;99416.84;2618116;54;20065;-67
2022/03/16 17:53:29;;;;;;;22.60;18.63;;;;;;;10.44;70.25;99414.75;2618661;54;20030;-68
2022/03/16 17:58:42;;;;;;;23.88;19.42;;;;;;;10.33;71.17;99410.72;2618501;54;20026;-69
2022/03/16 18:01:13;;;;;;;26.13;21.30;;;;;;;10.31;71.39;99410.88;2618530;54;20042;-70
2022/03/16 18:03:45;;;;;;;21.95;19.08;;;;;;;10.32;70.83;99412.50;2619744;39;20497;-67
2022/03/16 18:06:18;;;;;;;25.48;19.08;;;;;;;10.28;70.81;99408.56;2618247;54;20114;-67
2022/03/16 18:08:48;;;;;;;37.28;27.88;;;;;;;10.27;71.01;99406.13;2617966;46;20041;-67
2022/03/16 18:14:00;;;;;;;24.83;20.33;;;;;;;10.21;71.52;99397.03;2618021;54;20038;-67
2022/03/16 18:16:30;;;;;;;23.25;18.95;;;;;;;10.15;71.64;99400.38;2618417;54;20038;-67
2022/03/16 18:19:02;;;;;;;27.77;22.02;;;;;;;10.18;71.63;99400.03;2620749;54;20033;-67
2022/03/16 18:21:32;;;;;;;28.85;22.10;;;;;;;10.15;71.45;99400.38;2621804;47;20549;-68
2022/03/16 18:24:02;;;;;;;36.65;27.42;;;;;;;10.15;71.95;99395.09;2622982;54;20042;-67
2022/03/16 18:26:31;;;;;;;28.13;22.33;;;;;;;10.13;71.99;99387.34;2622817;54;20034;-69
2022/03/16 18:29:01;;;;;;;29.85;21.80;;;;;;;10.09;72.16;99383.41;2621949;47;20030;-68
2022/03/16 18:31:31;;;;;;;26.48;20.75;;;;;;;10.05;71.78;99379.47;2623357;46;20057;-65
2022/03/16 18:34:05;;;;;;;25.42;20.15;;;;;;;10.00;72.29;99381.84;2622117;47;20027;-65
2022/03/16 18:36:36;;;;;;;28.50;21.73;;;;;;;10.00;72.05;99388.91;2620702;47;20030;-66
2022/03/16 18:39:06;;;;;;;68.95;51.30;;;;;;;9.96;72.65;99388.47;2621831;54;20046;-66
2022/03/16 18:41:36;;;;;;;48.88;34.47;;;;;;;9.97;72.21;99384.00;2621637;54;20034;-67
2022/03/16 18:44:06;;;;;;;25.08;20.30;;;;;;;9.97;72.45;99397.19;2621444;47;20042;-71
2022/03/16 18:46:36;;;;;;;28.20;22.27;;;;;;;9.94;72.21;99398.34;2621201;54;20045;-66
2022/03/16 18:49:09;;;;;;;27.60;22.30;;;;;;;9.90;72.49;99399.69;2620441;54;20038;-67
2022/03/16 18:52:12;;;;;;;26.00;20.85;;;;;;;9.86;72.75;99408.97;2618558;54;20094;-66
2022/03/16 18:54:39;;;;;;;27.85;19.70;;;;;;;9.91;72.59;99414.53;2618410;54;20030;-65
2022/03/16 18:57:10;;;;;;;27.83;20.48;;;;;;;10.00;72.86;99421.44;2618592;54;20035;-65
2022/03/16 18:59:40;;;;;;;27.63;20.08;;;;;;;10.05;72.20;99418.28;2618542;54;20033;-69
2022/03/16 19:02:11;;;;;;;26.85;20.98;;;;;;;10.10;72.13;99413.28;2617870;47;20031;-67
2022/03/16 19:04:43;;;;;;;23.20;19.17;;;;;;;10.10;71.91;99418.56;2618839;39;20395;-67
2022/03/16 19:07:13;;;;;;;29.77;20.23;;;;;;;10.14;71.71;99414.59;2617431;47;20041;-67
2022/03/16 19:09:43;;;;;;;28.38;23.30;;;;;;;10.17;71.92;99430.09;2618159;54;20064;-68
2022/03/16 19:14:59;;;;;;;28.98;19.55;;;;;;;10.15;71.62;99421.50;2618156;47;20026;-68
2022/03/16 19:17:28;;;;;;;29.75;20.85;;;;;;;10.15;71.29;99418.88;2619345;46;20050;-67
2022/03/16 19:20:01;;;;;;;25.10;19.40;;;;;;;10.14;71.45;99423.34;2618964;54;20023;-68
2022/03/16 19:22:30;;;;;;;27.65;20.45;;;;;;;10.15;71.40;99427.63;2619914;39;20460;-68
2022/03/16 19:25:00;;;;;;;26.55;20.38;;;;;;;10.16;71.18;99426.63;2618936;54;20030;-66
2022/03/16 19:27:31;;;;;;;24.05;20.15;;;;;;;10.17;70.91;99430.91;2618850;54;20039;-66
2022/03/16 19:30:00;;;;;;;28.00;21.98;;;;;;;10.12;71.04;99427.13;2619016;39;20437;-66
2022/03/16 19:32:31;;;;;;;26.63;19.80;;;;;;;10.05;70.63;99432.31;2617392;54;20045;-66
2022/03/16 19:35:04;;;;;;;27.33;20.17;;;;;;;9.96;71.06;99425.44;2617921;39;20438;-69
2022/03/16 19:37:34;;;;;;;22.48;18.70;;;;;;;9.97;71.51;99426.25;2618048;54;20569;-66
2022/03/16 19:40:04;;;;;;;27.52;20.77;;;;;;;9.96;71.50;99425.44;2617937;54;20047;-66
2022/03/16 19:42:34;;;;;;;25.30;20.17;;;;;;;9.93;71.66;99433.69;2617874;54;20042;-67
2022/03/16 19:45:06;;;;;;;26.10;20.25;;;;;;;9.90;71.56;99434.03;2617698;54;20038;-68
2022/03/16 19:47:36;;;;;;;25.67;20.35;;;;;;;9.87;71.46;99432.56;2617962;54;20033;-66
2022/03/16 19:50:09;;;;;;;24.08;19.98;;;;;;;9.83;71.58;99444.44;2618250;54;20061;-69
2022/03/16 19:52:39;;;;;;;26.90;20.13;;;;;;;9.79;71.86;99435.22;2618615;54;20055;-65
2022/03/16 19:55:12;;;;;;;26.65;20.30;;;;;;;9.82;72.19;99431.44;2617714;47;20027;-67
2022/03/16 19:57:42;;;;;;;27.25;20.23;;;;;;;9.79;72.06;99427.31;2617676;54;20041;-67
2022/03/16 20:00:13;;;;;;;29.60;22.00;;;;;;;9.79;71.83;99429.13;2618378;54;20026;-67
2022/03/16 20:02:44;;;;;;;26.92;21.13;;;;;;;9.76;72.12;99425.03;2618559;54;20035;-66
2022/03/16 20:05:17;;;;;;;25.38;20.75;;;;;;;9.71;72.00;99418.59;2618477;54;20038;-66
2022/03/16 20:07:47;;;;;;;30.03;20.67;;;;;;;9.64;71.95;99415.84;2621637;54;20053;-67
2022/03/16 20:10:17;;;;;;;28.77;21.65;;;;;;;9.64;72.26;99414.03;2622227;54;20038;-66
2022/03/16 20:12:46;;;;;;;26.67;20.33;;;;;;;9.66;72.38;99408.56;2618787;54;20045;-67
2022/03/16 20:15:16;;;;;;;27.48;21.00;;;;;;;9.62;72.54;99401.97;2618172;54;20033;-68
2022/03/16 20:17:46;;;;;;;28.98;22.98;;;;;;;9.61;72.88;99408.25;2618823;54;20030;-68
2022/03/16 20:20:18;;;;;;;31.20;22.70;;;;;;;9.58;72.81;99405.97;2618398;54;20035;-68
2022/03/16 20:22:50;;;;;;;25.70;20.95;;;;;;;9.60;72.52;99404.81;2619245;39;20437;-68
2022/03/16 20:25:20;;;;;;;30.50;22.63;;;;;;;9.63;72.38;99409.75;2619621;54;20038;-67
2022/03/16 20:27:50;;;;;;;27.90;21.48;;;;;;;9.67;72.26;99408.41;2618705;54;20030;-68
2022/03/16 20:30:20;;;;;;;31.38;22.52;;;;;;;9.64;72.54;99415.84;2617629;54;20039;-67
2022/03/16 20:32:55;;;;;;;31.77;23.77;;;;;;;9.61;72.55;99408.25;2618496;54;20057;-67
2022/03/16 20:35:28;;;;;;;29.70;23.20;;;;;;;9.62;72.79;99407.25;2617303;47;20035;-67
2022/03/16 20:37:57;;;;;;;30.50;24.50;;;;;;;9.52;72.45;99391.63;2618169;54;20041;-68
2022/03/16 20:40:27;;;;;;;33.08;23.15;;;;;;;9.38;72.94;99394.97;2618537;54;20026;-66
2022/03/16 20:42:57;;;;;;;31.00;24.08;;;;;;;9.35;73.52;99405.91;2618205;54;20031;-66
2022/03/16 20:45:27;;;;;;;32.78;23.90;;;;;;;9.41;73.56;99402.56;2618077;54;20037;-66
2022/03/16 20:47:56;;;;;;;31.33;23.30;;;;;;;9.42;73.21;99391.00;2618079;54;20082;-66
2022/03/16 20:50:28;;;;;;;32.60;26.05;;;;;;;9.31;73.31;99396.66;2618195;54;20038;-66
2022/03/16 20:52:58;;;;;;;34.17;25.65;;;;;;;9.26;73.59;99391.88;2618342;54;20039;-68
2022/03/16 20:55:28;;;;;;;34.97;24.80;;;;;;;9.23;73.35;99386.97;2618151;54;20561;-68
2022/03/16 20:57:57;;;;;;;31.80;23.63;;;;;;;9.23;73.73;99389.59;2618471;39;20423;-66
2022/03/16 21:03:11;;;;;;;30.52;23.08;;;;;;;9.41;73.42;99395.47;2618237;54;20061;-66
2022/03/16 21:05:44;;;;;;;33.03;25.95;;;;;;;9.47;73.08;99388.69;2618181;54;20026;-66
2022/03/16 21:08:14;;;;;;;73.43;47.78;;;;;;;9.51;72.54;99384.72;2617597;54;20030;-67
2022/03/16 21:10:43;;;;;;;34.83;24.33;;;;;;;9.53;72.51;99389.81;2617620;47;20022;-67
2022/03/16 21:13:15;;;;;;;31.92;25.35;;;;;;;9.58;72.33;99387.47;2618115;54;20039;-69
2022/03/16 21:15:45;;;;;;;30.13;25.63;;;;;;;9.61;71.94;99387.16;2617722;54;20050;-70
2022/03/16 21:18:16;;;;;;;30.60;24.58;;;;;;;9.61;71.88;99385.31;2617401;54;20059;-67
2022/03/16 21:20:48;;;;;;;32.03;26.08;;;;;;;9.65;71.49;99394.53;2617978;54;20050;-67
2022/03/16 21:23:20;;;;;;;32.40;25.27;;;;;;;9.71;71.11;99400.94;2617328;54;20062;-67
2022/03/16 21:25:50;;;;;;;29.17;23.83;;;;;;;9.76;71.20;99406.56;2617800;54;20034;-69
2022/03/16 21:28:20;;;;;;;26.27;22.13;;;;;;;9.80;70.69;99401.75;2618251;54;20537;-71
2022/03/16 21:30:51;;;;;;;26.67;23.60;;;;;;;9.84;70.52;99395.94;2618478;39;20509;-67
2022/03/16 21:33:21;;;;;;;26.10;22.33;;;;;;;9.88;70.54;99401.72;2617823;39;20433;-68
2022/03/16 21:35:53;;;;;;;33.17;25.63;;;;;;;9.90;69.94;99407.63;2617904;54;20054;-66
2022/03/16 21:38:27;;;;;;;29.52;24.73;;;;;;;9.94;69.88;99406.28;2617367;54;20035;-68
2022/03/16 21:43:38;;;;;;;27.80;24.30;;;;;;;10.05;69.34;99402.44;2617100;47;20113;-66
2022/03/16 21:46:08;;;;;;;28.08;24.15;;;;;;;10.04;69.26;99406.91;2617874;54;20035;-65
2022/03/16 21:48:43;;;;;;;28.80;24.90;;;;;;;10.05;69.11;99407.72;2617361;54;20122;-68
2022/03/16 21:54:14;;;;;;;27.95;23.27;;;;;;;10.12;69.42;99414.78;2616339;54;20062;-69
2022/03/16 21:56:44;;;;;;;29.17;24.25;;;;;;;10.16;68.78;99409.94;2617270;54;20153;-68
2022/03/16 21:59:14;;;;;;;31.55;24.35;;;;;;;10.15;68.15;99406.47;2618003;54;20042;-67
2022/03/16 22:01:45;;;;;;;28.75;23.40;;;;;;;10.12;68.60;99398.06;2617939;54;20041;-68
2022/03/16 22:04:15;;;;;;;30.27;24.75;;;;;;;10.14;68.47;99390.81;2617109;47;20026;-65
2022/03/16 22:06:48;;;;;;;27.40;23.92;;;;;;;10.14;68.40;99383.72;2617980;46;20042;-66
2022/03/16 22:09:17;;;;;;;28.00;23.48;;;;;;;10.12;68.04;99379.59;2618118;54;20545;-66
2022/03/16 22:11:47;;;;;;;27.52;22.77;;;;;;;10.13;68.48;99390.00;2617438;54;20042;-67
2022/03/16 22:14:17;;;;;;;42.95;32.53;;;;;;;10.17;67.89;99382.53;2617343;47;20557;-67
2022/03/16 22:16:51;;;;;;;32.00;25.50;;;;;;;10.18;67.91;99382.34;2618825;54;20046;-67
2022/03/16 22:19:22;;;;;;;27.90;23.92;;;;;;;10.14;67.67;99383.72;2624023;47;20037;-66
2022/03/16 22:21:54;;;;;;;34.33;27.55;;;;;;;10.11;67.70;99384.06;2619192;54;20031;-66
2022/03/16 22:24:24;;;;;;;37.42;29.38;;;;;;;10.09;67.28;99379.97;2616978;47;20053;-68
2022/03/16 22:26:53;;;;;;;30.15;26.33;;;;;;;10.08;67.14;99380.94;2617653;54;20126;-70
2022/03/16 22:29:23;;;;;;;30.40;25.50;;;;;;;10.09;67.08;99380.78;2617102;47;20030;-68
2022/03/16 22:31:52;;;;;;;29.48;26.02;;;;;;;10.08;67.31;99378.28;2617792;54;20026;-68
2022/03/16 22:34:22;;;;;;;26.38;22.15;;;;;;;10.08;67.14;99388.84;2617388;54;20026;-68
2022/03/16 22:36:54;;;;;;;28.20;22.50;;;;;;;10.14;67.60;99396.09;2617574;54;20782;-69
2022/03/16 22:39:24;;;;;;;29.20;23.73;;;;;;;10.20;67.07;99392.75;2617689;54;20050;-69
2022/03/16 22:41:54;;;;;;;27.98;24.20;;;;;;;10.20;67.10;99392.75;2616904;47;20554;-68
2022/03/16 22:44:23;;;;;;;26.00;22.08;;;;;;;10.17;67.00;99393.13;2617483;54;20046;-68
2022/03/16 22:46:54;;;;;;;32.00;25.25;;;;;;;10.17;67.21;99387.81;2617497;54;20042;-69
2022/03/16 22:49:24;;;;;;;28.08;23.38;;;;;;;10.18;66.88;99392.09;2617469;54;20088;-69
2022/03/16 22:51:56;;;;;;;30.63;24.67;;;;;;;10.16;66.95;99394.94;2617515;54;20034;-67
2022/03/16 22:54:26;;;;;;;30.40;24.02;;;;;;;10.14;66.76;99393.44;2617579;54;20042;-67
2022/03/16 22:56:56;;;;;;;30.65;25.15;;;;;;;10.13;66.79;99386.53;2617670;54;20045;-68
2022/03/16 22:59:27;;;;;;;28.63;25.38;;;;;;;10.14;66.85;99396.91;2617621;54;20552;-68
2022/03/16 23:01:57;;;;;;;28.95;25.35;;;;;;;10.15;66.50;99393.28;2589979;39;20410;-67
2022/03/16 23:04:27;;;;;;;30.55;26.75;;;;;;;10.11;66.83;99389.34;2622125;31;20450;-63
2022/03/16 23:06:59;;;;;;;34.33;27.48;;;;;;;10.07;66.63;99389.84;2620574;54;20030;-65
2022/03/16 23:09:29;;;;;;;29.25;23.73;;;;;;;9.97;67.23;99384.81;2620661;54;20038;-63
2022/03/16 23:12:00;;;;;;;29.40;23.83;;;;;;;9.93;67.15;99388.78;2620889;54;20045;-63
2022/03/16 23:14:30;;;;;;;31.25;26.55;;;;;;;9.96;67.30;99384.97;2620093;54;20011;-69
2022/03/16 23:17:00;;;;;;;34.88;26.10;;;;;;;9.91;67.32;99386.31;2617714;54;20030;-69
2022/03/16 23:19:30;;;;;;;29.90;25.60;;;;;;;9.92;67.33;99376.59;2617671;54;20018;-69
2022/03/16 23:22:02;;;;;;;29.48;24.85;;;;;;;9.92;67.21;99384.53;2617908;54;20034;-68
2022/03/16 23:24:32;;;;;;;29.92;26.20;;;;;;;9.93;67.23;99392.25;2618270;54;20034;-68
